sensor_id;sensor_type;location;lat;lon;timestamp;P1;durP1;ratioP1;P2;durP2;ratioP2
25327;SDS011;13279;51.300;12.394;2023-02-03T00:02:29;6.17;;;2.40;;
25327;SDS011;13279;51.300;12.394;2023-02-03T00:05:14;9.10;;;3.13;;
25327;SDS011;13279;51.300;12.394;2023-02-03T00:08:08;6.40;;;3.23;;
25327;SDS011;13279;51.300;12.394;2023-02-03T00:10:41;12.37;;;3.00;;
25327;SDS011;13279;51.300;12.394;2023-02-03T00:13:20;7.07;;;2.70;;
25327;SDS011;13279;51.300;12.394;2023-02-03T00:15:54;3.20;;;2.00;;
25327;SDS011;13279;51.300;12.394;2023-02-03T00:18:29;7.23;;;2.00;;
25327;SDS011;13279;51.300;12.394;2023-02-03T00:21:01;6.23;;;1.80;;
25327;SDS011;13279;51.300;12.394;2023-02-03T00:23:49;4.77;;;2.17;;
25327;SDS011;13279;51.300;12.394;2023-02-03T00:26:22;4.80;;;1.80;;
25327;SDS011;13279;51.300;12.394;2023-02-03T00:28:59;15.27;;;2.00;;
25327;SDS011;13279;51.300;12.394;2023-02-03T00:31:34;8.07;;;2.00;;
25327;SDS011;13279;51.300;12.394;2023-02-03T00:34:03;6.57;;;1.97;;
25327;SDS011;13279;51.300;12.394;2023-02-03T00:36:31;2.47;;;1.30;;
25327;SDS011;13279;51.300;12.394;2023-02-03T00:39:02;5.20;;;2.07;;
25327;SDS011;13279;51.300;12.394;2023-02-03T00:41:31;5.67;;;2.03;;
25327;SDS011;13279;51.300;12.394;2023-02-03T00:43:59;2.80;;;1.63;;
25327;SDS011;13279;51.300;12.394;2023-02-03T00:46:30;1.80;;;1.40;;
25327;SDS011;13279;51.300;12.394;2023-02-03T00:49:02;4.17;;;1.60;;
25327;SDS011;13279;51.300;12.394;2023-02-03T00:51:30;2.43;;;1.60;;
25327;SDS011;13279;51.300;12.394;2023-02-03T00:53:58;7.23;;;2.00;;
25327;SDS011;13279;51.300;12.394;2023-02-03T00:56:27;1.73;;;1.63;;
25327;SDS011;13279;51.300;12.394;2023-02-03T00:58:55;3.13;;;1.80;;
25327;SDS011;13279;51.300;12.394;2023-02-03T01:01:22;2.20;;;2.00;;
25327;SDS011;13279;51.300;12.394;2023-02-03T01:03:50;3.40;;;1.83;;
25327;SDS011;13279;51.300;12.394;2023-02-03T01:06:19;3.50;;;1.97;;
25327;SDS011;13279;51.300;12.394;2023-02-03T01:08:47;3.03;;;1.77;;
25327;SDS011;13279;51.300;12.394;2023-02-03T01:11:16;3.83;;;1.80;;
25327;SDS011;13279;51.300;12.394;2023-02-03T01:13:46;3.17;;;2.00;;
25327;SDS011;13279;51.300;12.394;2023-02-03T01:16:15;2.20;;;2.00;;
25327;SDS011;13279;51.300;12.394;2023-02-03T01:18:45;2.80;;;2.30;;
25327;SDS011;13279;51.300;12.394;2023-02-03T01:21:14;2.43;;;2.20;;
25327;SDS011;13279;51.300;12.394;2023-02-03T01:23:44;8.13;;;2.50;;
25327;SDS011;13279;51.300;12.394;2023-02-03T01:26:16;3.63;;;2.40;;
25327;SDS011;13279;51.300;12.394;2023-02-03T01:28:49;3.43;;;2.63;;
25327;SDS011;13279;51.300;12.394;2023-02-03T01:31:19;2.97;;;2.53;;
25327;SDS011;13279;51.300;12.394;2023-02-03T01:33:50;3.60;;;2.60;;
25327;SDS011;13279;51.300;12.394;2023-02-03T01:36:19;3.23;;;2.43;;
25327;SDS011;13279;51.300;12.394;2023-02-03T01:38:48;6.50;;;2.83;;
25327;SDS011;13279;51.300;12.394;2023-02-03T01:41:17;7.10;;;3.23;;
25327;SDS011;13279;51.300;12.394;2023-02-03T01:43:50;5.07;;;3.00;;
25327;SDS011;13279;51.300;12.394;2023-02-03T01:46:24;4.97;;;3.33;;
25327;SDS011;13279;51.300;12.394;2023-02-03T01:48:58;8.10;;;3.03;;
25327;SDS011;13279;51.300;12.394;2023-02-03T01:51:31;4.20;;;3.00;;
25327;SDS011;13279;51.300;12.394;2023-02-03T01:54:00;7.70;;;3.50;;
25327;SDS011;13279;51.300;12.394;2023-02-03T01:56:39;5.93;;;3.87;;
25327;SDS011;13279;51.300;12.394;2023-02-03T01:59:11;6.40;;;3.47;;
25327;SDS011;13279;51.300;12.394;2023-02-03T02:01:45;10.20;;;3.80;;
25327;SDS011;13279;51.300;12.394;2023-02-03T02:04:16;8.97;;;4.07;;
25327;SDS011;13279;51.300;12.394;2023-02-03T02:06:46;9.37;;;4.33;;
25327;SDS011;13279;51.300;12.394;2023-02-03T02:09:17;12.27;;;4.40;;
25327;SDS011;13279;51.300;12.394;2023-02-03T02:11:56;6.93;;;4.10;;
25327;SDS011;13279;51.300;12.394;2023-02-03T02:14:40;8.17;;;4.60;;
25327;SDS011;13279;51.300;12.394;2023-02-03T02:17:21;5.87;;;3.90;;
25327;SDS011;13279;51.300;12.394;2023-02-03T02:20:17;8.20;;;4.80;;
25327;SDS011;13279;51.300;12.394;2023-02-03T02:23:15;9.53;;;4.67;;
25327;SDS011;13279;51.300;12.394;2023-02-03T02:29:22;14.67;;;5.20;;
25327;SDS011;13279;51.300;12.394;2023-02-03T02:32:32;15.43;;;5.33;;
25327;SDS011;13279;51.300;12.394;2023-02-03T02:35:10;12.27;;;5.40;;
25327;SDS011;13279;51.300;12.394;2023-02-03T02:37:49;12.07;;;6.77;;
25327;SDS011;13279;51.300;12.394;2023-02-03T02:40:32;13.47;;;6.80;;
25327;SDS011;13279;51.300;12.394;2023-02-03T02:43:07;18.67;;;8.17;;
25327;SDS011;13279;51.300;12.394;2023-02-03T02:45:41;17.97;;;8.43;;
25327;SDS011;13279;51.300;12.394;2023-02-03T02:48:22;21.90;;;9.07;;
25327;SDS011;13279;51.300;12.394;2023-02-03T02:50:58;24.47;;;9.97;;
25327;SDS011;13279;51.300;12.394;2023-02-03T02:53:31;26.90;;;10.37;;
25327;SDS011;13279;51.300;12.394;2023-02-03T02:56:05;24.53;;;10.73;;
25327;SDS011;13279;51.300;12.394;2023-02-03T02:58:36;25.80;;;10.23;;
25327;SDS011;13279;51.300;12.394;2023-02-03T03:01:07;29.87;;;11.73;;
25327;SDS011;13279;51.300;12.394;2023-02-03T03:03:38;30.07;;;11.40;;
25327;SDS011;13279;51.300;12.394;2023-02-03T03:06:14;38.53;;;12.90;;
25327;SDS011;13279;51.300;12.394;2023-02-03T03:08:49;34.93;;;12.80;;
25327;SDS011;13279;51.300;12.394;2023-02-03T03:11:21;37.10;;;13.30;;
25327;SDS011;13279;51.300;12.394;2023-02-03T03:13:56;38.40;;;13.33;;
25327;SDS011;13279;51.300;12.394;2023-02-03T03:16:31;34.93;;;12.93;;
25327;SDS011;13279;51.300;12.394;2023-02-03T03:19:07;55.63;;;15.83;;
25327;SDS011;13279;51.300;12.394;2023-02-03T03:21:40;51.13;;;16.00;;
25327;SDS011;13279;51.300;12.394;2023-02-03T03:24:13;51.77;;;16.87;;
25327;SDS011;13279;51.300;12.394;2023-02-03T03:26:48;47.90;;;16.60;;
25327;SDS011;13279;51.300;12.394;2023-02-03T03:29:23;50.10;;;16.87;;
25327;SDS011;13279;51.300;12.394;2023-02-03T03:31:53;56.17;;;17.57;;
25327;SDS011;13279;51.300;12.394;2023-02-03T03:34:22;64.17;;;17.53;;
25327;SDS011;13279;51.300;12.394;2023-02-03T03:36:53;48.63;;;16.93;;
25327;SDS011;13279;51.300;12.394;2023-02-03T03:39:31;47.13;;;16.53;;
25327;SDS011;13279;51.300;12.394;2023-02-03T03:42:04;43.87;;;15.33;;
25327;SDS011;13279;51.300;12.394;2023-02-03T03:44:38;50.00;;;17.20;;
25327;SDS011;13279;51.300;12.394;2023-02-03T03:47:16;51.40;;;17.80;;
25327;SDS011;13279;51.300;12.394;2023-02-03T03:49:51;50.30;;;16.57;;
25327;SDS011;13279;51.300;12.394;2023-02-03T03:52:22;54.27;;;18.83;;
25327;SDS011;13279;51.300;12.394;2023-02-03T03:54:56;46.87;;;15.93;;
25327;SDS011;13279;51.300;12.394;2023-02-03T03:57:27;47.40;;;15.83;;
25327;SDS011;13279;51.300;12.394;2023-02-03T04:00:04;51.87;;;16.83;;
25327;SDS011;13279;51.300;12.394;2023-02-03T04:02:38;51.17;;;16.37;;
25327;SDS011;13279;51.300;12.394;2023-02-03T04:05:19;53.47;;;18.60;;
25327;SDS011;13279;51.300;12.394;2023-02-03T04:08:00;55.10;;;17.73;;
25327;SDS011;13279;51.300;12.394;2023-02-03T04:10:29;44.40;;;17.17;;
25327;SDS011;13279;51.300;12.394;2023-02-03T04:13:00;46.83;;;15.97;;
25327;SDS011;13279;51.300;12.394;2023-02-03T04:15:29;44.30;;;15.17;;
25327;SDS011;13279;51.300;12.394;2023-02-03T04:18:00;41.93;;;15.07;;
25327;SDS011;13279;51.300;12.394;2023-02-03T04:20:30;39.83;;;14.77;;
25327;SDS011;13279;51.300;12.394;2023-02-03T04:22:58;44.03;;;16.57;;
25327;SDS011;13279;51.300;12.394;2023-02-03T04:25:27;41.77;;;15.37;;
25327;SDS011;13279;51.300;12.394;2023-02-03T04:28:00;41.77;;;15.43;;
25327;SDS011;13279;51.300;12.394;2023-02-03T04:30:31;38.97;;;15.23;;
25327;SDS011;13279;51.300;12.394;2023-02-03T04:32:59;38.37;;;16.03;;
25327;SDS011;13279;51.300;12.394;2023-02-03T04:35:33;41.70;;;16.90;;
25327;SDS011;13279;51.300;12.394;2023-02-03T04:38:02;35.40;;;15.67;;
25327;SDS011;13279;51.300;12.394;2023-02-03T04:40:33;33.67;;;15.80;;
25327;SDS011;13279;51.300;12.394;2023-02-03T04:43:09;37.83;;;15.70;;
25327;SDS011;13279;51.300;12.394;2023-02-03T04:45:39;42.70;;;16.27;;
25327;SDS011;13279;51.300;12.394;2023-02-03T04:48:06;37.60;;;16.83;;
25327;SDS011;13279;51.300;12.394;2023-02-03T04:50:35;35.17;;;14.73;;
25327;SDS011;13279;51.300;12.394;2023-02-03T04:53:06;35.33;;;14.83;;
25327;SDS011;13279;51.300;12.394;2023-02-03T04:55:34;36.77;;;16.17;;
25327;SDS011;13279;51.300;12.394;2023-02-03T04:58:02;38.40;;;16.03;;
25327;SDS011;13279;51.300;12.394;2023-02-03T05:00:31;38.40;;;16.57;;
25327;SDS011;13279;51.300;12.394;2023-02-03T05:03:02;34.13;;;15.23;;
25327;SDS011;13279;51.300;12.394;2023-02-03T05:05:32;37.90;;;17.53;;
25327;SDS011;13279;51.300;12.394;2023-02-03T05:08:01;46.20;;;16.13;;
25327;SDS011;13279;51.300;12.394;2023-02-03T05:10:29;40.83;;;17.93;;
25327;SDS011;13279;51.300;12.394;2023-02-03T05:12:57;34.70;;;15.07;;
25327;SDS011;13279;51.300;12.394;2023-02-03T05:15:25;37.20;;;16.83;;
25327;SDS011;13279;51.300;12.394;2023-02-03T05:17:53;36.00;;;14.83;;
25327;SDS011;13279;51.300;12.394;2023-02-03T05:20:21;36.77;;;14.97;;
25327;SDS011;13279;51.300;12.394;2023-02-03T05:22:50;27.27;;;13.47;;
25327;SDS011;13279;51.300;12.394;2023-02-03T05:25:17;25.77;;;13.47;;
25327;SDS011;13279;51.300;12.394;2023-02-03T05:27:45;22.60;;;12.43;;
25327;SDS011;13279;51.300;12.394;2023-02-03T05:30:13;22.27;;;11.93;;
25327;SDS011;13279;51.300;12.394;2023-02-03T05:32:42;25.37;;;12.07;;
25327;SDS011;13279;51.300;12.394;2023-02-03T05:35:27;20.20;;;10.97;;
25327;SDS011;13279;51.300;12.394;2023-02-03T05:37:56;22.47;;;12.57;;
25327;SDS011;13279;51.300;12.394;2023-02-03T05:40:23;16.83;;;10.23;;
25327;SDS011;13279;51.300;12.394;2023-02-03T05:43:08;17.97;;;10.93;;
25327;SDS011;13279;51.300;12.394;2023-02-03T05:45:36;14.83;;;8.83;;
25327;SDS011;13279;51.300;12.394;2023-02-03T05:48:04;16.53;;;9.37;;
25327;SDS011;13279;51.300;12.394;2023-02-03T05:50:32;18.83;;;9.23;;
25327;SDS011;13279;51.300;12.394;2023-02-03T05:53:07;17.10;;;10.43;;
25327;SDS011;13279;51.300;12.394;2023-02-03T05:55:36;13.03;;;8.57;;
25327;SDS011;13279;51.300;12.394;2023-02-03T05:58:04;15.33;;;8.17;;
25327;SDS011;13279;51.300;12.394;2023-02-03T06:00:31;16.77;;;9.10;;
25327;SDS011;13279;51.300;12.394;2023-02-03T06:02:59;13.60;;;8.00;;
25327;SDS011;13279;51.300;12.394;2023-02-03T06:05:28;19.57;;;9.00;;
25327;SDS011;13279;51.300;12.394;2023-02-03T06:07:57;16.93;;;9.13;;
25327;SDS011;13279;51.300;12.394;2023-02-03T06:10:26;15.40;;;9.10;;
25327;SDS011;13279;51.300;12.394;2023-02-03T06:12:54;19.33;;;8.97;;
25327;SDS011;13279;51.300;12.394;2023-02-03T06:15:24;18.60;;;10.07;;
25327;SDS011;13279;51.300;12.394;2023-02-03T06:17:56;14.73;;;9.30;;
25327;SDS011;13279;51.300;12.394;2023-02-03T06:20:29;18.20;;;8.73;;
25327;SDS011;13279;51.300;12.394;2023-02-03T06:22:56;17.47;;;9.30;;
25327;SDS011;13279;51.300;12.394;2023-02-03T06:25:26;15.73;;;8.67;;
25327;SDS011;13279;51.300;12.394;2023-02-03T06:27:57;14.63;;;8.77;;
25327;SDS011;13279;51.300;12.394;2023-02-03T06:30:24;13.83;;;8.67;;
25327;SDS011;13279;51.300;12.394;2023-02-03T06:32:53;15.73;;;8.43;;
25327;SDS011;13279;51.300;12.394;2023-02-03T06:35:21;15.27;;;8.23;;
25327;SDS011;13279;51.300;12.394;2023-02-03T06:37:48;21.23;;;8.63;;
25327;SDS011;13279;51.300;12.394;2023-02-03T06:40:18;17.63;;;8.70;;
25327;SDS011;13279;51.300;12.394;2023-02-03T06:42:47;15.87;;;7.73;;
25327;SDS011;13279;51.300;12.394;2023-02-03T06:45:15;12.37;;;8.17;;
25327;SDS011;13279;51.300;12.394;2023-02-03T06:47:44;13.67;;;7.50;;
25327;SDS011;13279;51.300;12.394;2023-02-03T06:50:12;11.23;;;7.07;;
25327;SDS011;13279;51.300;12.394;2023-02-03T06:52:40;10.07;;;7.07;;
25327;SDS011;13279;51.300;12.394;2023-02-03T06:55:08;14.40;;;6.87;;
25327;SDS011;13279;51.300;12.394;2023-02-03T06:57:41;14.40;;;8.13;;
25327;SDS011;13279;51.300;12.394;2023-02-03T07:00:11;12.23;;;6.33;;
25327;SDS011;13279;51.300;12.394;2023-02-03T07:02:40;14.13;;;6.23;;
25327;SDS011;13279;51.300;12.394;2023-02-03T07:05:07;13.47;;;5.97;;
25327;SDS011;13279;51.300;12.394;2023-02-03T07:07:35;8.13;;;5.67;;
25327;SDS011;13279;51.300;12.394;2023-02-03T07:10:04;8.07;;;5.67;;
25327;SDS011;13279;51.300;12.394;2023-02-03T07:12:32;9.07;;;5.80;;
25327;SDS011;13279;51.300;12.394;2023-02-03T07:15:00;6.70;;;5.43;;
25327;SDS011;13279;51.300;12.394;2023-02-03T07:17:30;8.00;;;6.27;;
25327;SDS011;13279;51.300;12.394;2023-02-03T07:19:57;10.10;;;5.70;;
25327;SDS011;13279;51.300;12.394;2023-02-03T07:22:25;7.40;;;4.83;;
25327;SDS011;13279;51.300;12.394;2023-02-03T07:24:52;10.77;;;5.37;;
25327;SDS011;13279;51.300;12.394;2023-02-03T07:27:20;7.63;;;5.50;;
25327;SDS011;13279;51.300;12.394;2023-02-03T07:29:47;12.03;;;4.97;;
25327;SDS011;13279;51.300;12.394;2023-02-03T07:32:14;6.20;;;4.60;;
25327;SDS011;13279;51.300;12.394;2023-02-03T07:34:43;7.10;;;4.83;;
25327;SDS011;13279;51.300;12.394;2023-02-03T07:37:10;6.60;;;4.87;;
25327;SDS011;13279;51.300;12.394;2023-02-03T07:39:38;12.43;;;4.80;;
25327;SDS011;13279;51.300;12.394;2023-02-03T07:42:05;8.00;;;4.80;;
25327;SDS011;13279;51.300;12.394;2023-02-03T07:44:36;8.20;;;4.53;;
25327;SDS011;13279;51.300;12.394;2023-02-03T07:47:04;5.37;;;4.47;;
25327;SDS011;13279;51.300;12.394;2023-02-03T07:49:31;7.57;;;5.13;;
25327;SDS011;13279;51.300;12.394;2023-02-03T07:52:00;7.37;;;5.27;;
25327;SDS011;13279;51.300;12.394;2023-02-03T07:54:27;8.40;;;4.63;;
25327;SDS011;13279;51.300;12.394;2023-02-03T07:56:55;10.17;;;4.87;;
25327;SDS011;13279;51.300;12.394;2023-02-03T07:59:22;10.47;;;5.10;;
25327;SDS011;13279;51.300;12.394;2023-02-03T08:01:50;7.23;;;4.73;;
25327;SDS011;13279;51.300;12.394;2023-02-03T08:04:20;8.40;;;4.60;;
25327;SDS011;13279;51.300;12.394;2023-02-03T08:06:48;6.77;;;5.03;;
25327;SDS011;13279;51.300;12.394;2023-02-03T08:09:17;8.03;;;5.47;;
25327;SDS011;13279;51.300;12.394;2023-02-03T08:11:45;8.10;;;4.60;;
25327;SDS011;13279;51.300;12.394;2023-02-03T08:14:13;7.00;;;4.40;;
25327;SDS011;13279;51.300;12.394;2023-02-03T08:16:40;6.13;;;4.53;;
25327;SDS011;13279;51.300;12.394;2023-02-03T08:19:08;9.40;;;4.53;;
25327;SDS011;13279;51.300;12.394;2023-02-03T08:21:36;6.97;;;4.10;;
25327;SDS011;13279;51.300;12.394;2023-02-03T08:24:04;4.40;;;3.70;;
25327;SDS011;13279;51.300;12.394;2023-02-03T08:26:33;11.33;;;4.33;;
25327;SDS011;13279;51.300;12.394;2023-02-03T08:29:01;8.13;;;3.60;;
25327;SDS011;13279;51.300;12.394;2023-02-03T08:31:29;6.70;;;3.60;;
25327;SDS011;13279;51.300;12.394;2023-02-03T08:33:56;5.07;;;3.20;;
25327;SDS011;13279;51.300;12.394;2023-02-03T08:36:24;6.97;;;3.97;;
25327;SDS011;13279;51.300;12.394;2023-02-03T08:38:52;5.57;;;3.30;;
25327;SDS011;13279;51.300;12.394;2023-02-03T08:41:19;5.23;;;3.67;;
25327;SDS011;13279;51.300;12.394;2023-02-03T08:43:48;5.87;;;3.80;;
25327;SDS011;13279;51.300;12.394;2023-02-03T08:46:16;4.37;;;3.63;;
25327;SDS011;13279;51.300;12.394;2023-02-03T08:48:43;6.50;;;3.40;;
25327;SDS011;13279;51.300;12.394;2023-02-03T08:51:11;9.10;;;3.10;;
25327;SDS011;13279;51.300;12.394;2023-02-03T08:53:39;4.00;;;3.57;;
25327;SDS011;13279;51.300;12.394;2023-02-03T08:56:07;4.20;;;3.27;;
25327;SDS011;13279;51.300;12.394;2023-02-03T08:58:36;5.60;;;4.60;;
25327;SDS011;13279;51.300;12.394;2023-02-03T09:01:06;4.47;;;2.77;;
25327;SDS011;13279;51.300;12.394;2023-02-03T09:03:35;4.30;;;3.67;;
25327;SDS011;13279;51.300;12.394;2023-02-03T09:06:03;6.43;;;3.60;;
25327;SDS011;13279;51.300;12.394;2023-02-03T09:08:31;3.73;;;3.03;;
25327;SDS011;13279;51.300;12.394;2023-02-03T09:10:59;2.80;;;2.57;;
25327;SDS011;13279;51.300;12.394;2023-02-03T09:13:26;4.23;;;3.23;;
25327;SDS011;13279;51.300;12.394;2023-02-03T09:15:54;8.00;;;3.10;;
25327;SDS011;13279;51.300;12.394;2023-02-03T09:18:26;6.00;;;3.03;;
25327;SDS011;13279;51.300;12.394;2023-02-03T09:20:58;6.63;;;3.80;;
25327;SDS011;13279;51.300;12.394;2023-02-03T09:23:27;3.33;;;2.97;;
25327;SDS011;13279;51.300;12.394;2023-02-03T09:25:54;5.07;;;3.30;;
25327;SDS011;13279;51.300;12.394;2023-02-03T09:28:22;3.53;;;2.73;;
25327;SDS011;13279;51.300;12.394;2023-02-03T09:30:50;6.77;;;3.00;;
25327;SDS011;13279;51.300;12.394;2023-02-03T09:33:17;5.87;;;2.63;;
25327;SDS011;13279;51.300;12.394;2023-02-03T09:35:51;3.07;;;2.60;;
25327;SDS011;13279;51.300;12.394;2023-02-03T09:38:19;2.80;;;2.20;;
25327;SDS011;13279;51.300;12.394;2023-02-03T09:40:48;5.73;;;2.50;;
25327;SDS011;13279;51.300;12.394;2023-02-03T09:43:22;4.07;;;2.27;;
25327;SDS011;13279;51.300;12.394;2023-02-03T09:46:02;2.73;;;2.13;;
25327;SDS011;13279;51.300;12.394;2023-02-03T09:48:34;4.70;;;2.57;;
25327;SDS011;13279;51.300;12.394;2023-02-03T09:51:12;6.40;;;2.57;;
25327;SDS011;13279;51.300;12.394;2023-02-03T09:53:47;2.63;;;2.40;;
25327;SDS011;13279;51.300;12.394;2023-02-03T09:56:21;3.73;;;2.33;;
25327;SDS011;13279;51.300;12.394;2023-02-03T09:58:53;3.90;;;2.30;;
25327;SDS011;13279;51.300;12.394;2023-02-03T10:01:20;2.47;;;2.27;;
25327;SDS011;13279;51.300;12.394;2023-02-03T10:03:51;3.47;;;1.97;;
25327;SDS011;13279;51.300;12.394;2023-02-03T10:06:30;4.67;;;2.43;;
25327;SDS011;13279;51.300;12.394;2023-02-03T10:09:12;4.63;;;2.23;;
25327;SDS011;13279;51.300;12.394;2023-02-03T10:12:08;3.67;;;2.00;;
25327;SDS011;13279;51.300;12.394;2023-02-03T10:15:08;4.70;;;2.20;;
25327;SDS011;13279;51.300;12.394;2023-02-03T10:17:50;3.13;;;2.20;;
25327;SDS011;13279;51.300;12.394;2023-02-03T10:20:33;2.43;;;2.10;;
25327;SDS011;13279;51.300;12.394;2023-02-03T10:23:08;5.77;;;1.97;;
25327;SDS011;13279;51.300;12.394;2023-02-03T10:25:39;6.37;;;1.80;;
25327;SDS011;13279;51.300;12.394;2023-02-03T10:28:12;2.93;;;2.00;;
25327;SDS011;13279;51.300;12.394;2023-02-03T10:30:43;2.50;;;1.80;;
25327;SDS011;13279;51.300;12.394;2023-02-03T10:33:15;4.47;;;2.13;;
25327;SDS011;13279;51.300;12.394;2023-02-03T10:35:45;4.27;;;2.07;;
25327;SDS011;13279;51.300;12.394;2023-02-03T10:38:21;5.90;;;2.30;;
25327;SDS011;13279;51.300;12.394;2023-02-03T10:41:00;3.47;;;2.30;;
25327;SDS011;13279;51.300;12.394;2023-02-03T10:43:28;4.57;;;2.40;;
25327;SDS011;13279;51.300;12.394;2023-02-03T10:46:16;2.60;;;2.30;;
25327;SDS011;13279;51.300;12.394;2023-02-03T10:48:45;2.77;;;2.37;;
25327;SDS011;13279;51.300;12.394;2023-02-03T10:51:16;3.23;;;2.20;;
25327;SDS011;13279;51.300;12.394;2023-02-03T10:53:48;5.03;;;2.40;;
25327;SDS011;13279;51.300;12.394;2023-02-03T10:56:19;5.80;;;2.33;;
25327;SDS011;13279;51.300;12.394;2023-02-03T10:58:48;4.70;;;2.37;;
25327;SDS011;13279;51.300;12.394;2023-02-03T11:01:18;2.50;;;2.30;;
25327;SDS011;13279;51.300;12.394;2023-02-03T11:03:57;7.57;;;3.00;;
25327;SDS011;13279;51.300;12.394;2023-02-03T11:06:27;2.57;;;2.37;;
25327;SDS011;13279;51.300;12.394;2023-02-03T11:08:57;2.47;;;2.23;;
25327;SDS011;13279;51.300;12.394;2023-02-03T11:11:25;2.60;;;2.40;;
25327;SDS011;13279;51.300;12.394;2023-02-03T11:14:09;1.90;;;1.80;;
25327;SDS011;13279;51.300;12.394;2023-02-03T11:16:38;2.57;;;2.33;;
25327;SDS011;13279;51.300;12.394;2023-02-03T11:19:06;4.20;;;2.67;;
25327;SDS011;13279;51.300;12.394;2023-02-03T11:21:42;4.90;;;2.37;;
25327;SDS011;13279;51.300;12.394;2023-02-03T11:24:16;5.07;;;3.00;;
25327;SDS011;13279;51.300;12.394;2023-02-03T11:26:47;4.77;;;2.70;;
25327;SDS011;13279;51.300;12.394;2023-02-03T11:29:17;2.60;;;2.40;;
25327;SDS011;13279;51.300;12.394;2023-02-03T11:31:48;4.07;;;3.07;;
25327;SDS011;13279;51.300;12.394;2023-02-03T11:34:18;3.60;;;3.30;;
25327;SDS011;13279;51.300;12.394;2023-02-03T11:36:50;3.97;;;3.13;;
25327;SDS011;13279;51.300;12.394;2023-02-03T11:41:59;3.53;;;2.80;;
25327;SDS011;13279;51.300;12.394;2023-02-03T11:44:28;2.50;;;2.30;;
25327;SDS011;13279;51.300;12.394;2023-02-03T11:46:58;3.10;;;2.77;;
25327;SDS011;13279;51.300;12.394;2023-02-03T11:49:38;4.97;;;3.00;;
25327;SDS011;13279;51.300;12.394;2023-02-03T11:52:31;2.97;;;2.50;;
25327;SDS011;13279;51.300;12.394;2023-02-03T11:55:11;5.30;;;3.30;;
25327;SDS011;13279;51.300;12.394;2023-02-03T11:57:51;4.40;;;2.70;;
25327;SDS011;13279;51.300;12.394;2023-02-03T12:00:28;4.20;;;2.97;;
25327;SDS011;13279;51.300;12.394;2023-02-03T12:03:17;5.33;;;3.07;;
25327;SDS011;13279;51.300;12.394;2023-02-03T12:06:05;3.17;;;2.80;;
25327;SDS011;13279;51.300;12.394;2023-02-03T12:08:58;3.03;;;2.73;;
25327;SDS011;13279;51.300;12.394;2023-02-03T12:11:38;4.00;;;2.40;;
25327;SDS011;13279;51.300;12.394;2023-02-03T12:14:20;3.07;;;2.73;;
25327;SDS011;13279;51.300;12.394;2023-02-03T12:17:05;2.30;;;2.10;;
25327;SDS011;13279;51.300;12.394;2023-02-03T12:19:48;1.77;;;1.67;;
25327;SDS011;13279;51.300;12.394;2023-02-03T12:22:28;2.70;;;2.50;;
25327;SDS011;13279;51.300;12.394;2023-02-03T12:25:05;2.50;;;2.30;;
25327;SDS011;13279;51.300;12.394;2023-02-03T12:27:47;2.47;;;2.27;;
25327;SDS011;13279;51.300;12.394;2023-02-03T12:30:21;2.60;;;2.10;;
25327;SDS011;13279;51.300;12.394;2023-02-03T12:32:54;3.37;;;2.17;;
25327;SDS011;13279;51.300;12.394;2023-02-03T12:35:26;2.30;;;2.10;;
25327;SDS011;13279;51.300;12.394;2023-02-03T12:38:02;2.43;;;2.13;;
25327;SDS011;13279;51.300;12.394;2023-02-03T12:40:34;2.30;;;2.10;;
25327;SDS011;13279;51.300;12.394;2023-02-03T12:43:16;2.37;;;2.17;;
25327;SDS011;13279;51.300;12.394;2023-02-03T12:46:08;2.27;;;2.07;;
25327;SDS011;13279;51.300;12.394;2023-02-03T12:48:47;2.37;;;2.13;;
25327;SDS011;13279;51.300;12.394;2023-02-03T12:51:23;2.03;;;1.93;;
25327;SDS011;13279;51.300;12.394;2023-02-03T12:54:15;5.97;;;1.80;;
25327;SDS011;13279;51.300;12.394;2023-02-03T12:57:11;2.50;;;1.83;;
25327;SDS011;13279;51.300;12.394;2023-02-03T12:59:48;1.47;;;1.20;;
25327;SDS011;13279;51.300;12.394;2023-02-03T13:02:26;2.40;;;1.33;;
25327;SDS011;13279;51.300;12.394;2023-02-03T13:04:56;2.13;;;1.10;;
25327;SDS011;13279;51.300;12.394;2023-02-03T13:07:29;1.57;;;0.90;;
25327;SDS011;13279;51.300;12.394;2023-02-03T13:10:03;2.57;;;1.10;;
25327;SDS011;13279;51.300;12.394;2023-02-03T13:12:40;1.30;;;0.80;;
25327;SDS011;13279;51.300;12.394;2023-02-03T13:15:18;3.23;;;1.00;;
25327;SDS011;13279;51.300;12.394;2023-02-03T13:17:52;5.47;;;1.40;;
25327;SDS011;13279;51.300;12.394;2023-02-03T13:20:24;7.80;;;1.30;;
25327;SDS011;13279;51.300;12.394;2023-02-03T13:22:55;5.30;;;1.43;;
25327;SDS011;13279;51.300;12.394;2023-02-03T13:25:27;4.47;;;1.43;;
25327;SDS011;13279;51.300;12.394;2023-02-03T13:28:06;6.47;;;1.90;;
25327;SDS011;13279;51.300;12.394;2023-02-03T13:30:44;8.63;;;1.57;;
25327;SDS011;13279;51.300;12.394;2023-02-03T13:33:38;10.80;;;1.73;;
25327;SDS011;13279;51.300;12.394;2023-02-03T13:36:19;13.23;;;2.30;;
25327;SDS011;13279;51.300;12.394;2023-02-03T13:39:19;14.33;;;2.13;;
25327;SDS011;13279;51.300;12.394;2023-02-03T13:42:07;8.70;;;1.37;;
25327;SDS011;13279;51.300;12.394;2023-02-03T13:44:49;15.57;;;3.00;;
25327;SDS011;13279;51.300;12.394;2023-02-03T13:47:22;10.77;;;2.93;;
25327;SDS011;13279;51.300;12.394;2023-02-03T13:49:53;10.17;;;2.10;;
25327;SDS011;13279;51.300;12.394;2023-02-03T13:52:30;14.27;;;2.57;;
25327;SDS011;13279;51.300;12.394;2023-02-03T13:55:00;16.37;;;2.30;;
25327;SDS011;13279;51.300;12.394;2023-02-03T13:57:31;7.73;;;2.03;;
25327;SDS011;13279;51.300;12.394;2023-02-03T14:00:01;20.60;;;2.60;;
25327;SDS011;13279;51.300;12.394;2023-02-03T14:02:44;11.30;;;3.07;;
25327;SDS011;13279;51.300;12.394;2023-02-03T14:05:38;6.60;;;2.07;;
25327;SDS011;13279;51.300;12.394;2023-02-03T14:11:39;13.63;;;2.20;;
25327;SDS011;13279;51.300;12.394;2023-02-03T14:23:21;7.53;;;1.90;;
25327;SDS011;13279;51.300;12.394;2023-02-03T14:25:53;9.40;;;1.67;;
25327;SDS011;13279;51.300;12.394;2023-02-03T14:28:22;10.37;;;2.47;;
25327;SDS011;13279;51.300;12.394;2023-02-03T14:31:00;8.83;;;2.13;;
25327;SDS011;13279;51.300;12.394;2023-02-03T14:36:35;9.23;;;2.80;;
25327;SDS011;13279;51.300;12.394;2023-02-03T14:42:34;21.03;;;3.50;;
25327;SDS011;13279;51.300;12.394;2023-02-03T14:45:26;9.93;;;2.63;;
25327;SDS011;13279;51.300;12.394;2023-02-03T14:48:10;9.10;;;2.27;;
25327;SDS011;13279;51.300;12.394;2023-02-03T14:50:54;15.63;;;2.53;;
25327;SDS011;13279;51.300;12.394;2023-02-03T14:53:34;8.90;;;2.10;;
25327;SDS011;13279;51.300;12.394;2023-02-03T14:56:11;17.40;;;2.73;;
25327;SDS011;13279;51.300;12.394;2023-02-03T14:58:46;16.90;;;2.27;;
25327;SDS011;13279;51.300;12.394;2023-02-03T15:01:22;15.97;;;2.73;;
25327;SDS011;13279;51.300;12.394;2023-02-03T15:06:49;12.77;;;2.67;;
25327;SDS011;13279;51.300;12.394;2023-02-03T15:09:20;16.50;;;2.97;;
25327;SDS011;13279;51.300;12.394;2023-02-03T15:11:52;12.10;;;2.80;;
25327;SDS011;13279;51.300;12.394;2023-02-03T15:14:20;21.13;;;3.20;;
25327;SDS011;13279;51.300;12.394;2023-02-03T15:16:51;9.83;;;2.93;;
25327;SDS011;13279;51.300;12.394;2023-02-03T15:19:23;7.23;;;2.70;;
25327;SDS011;13279;51.300;12.394;2023-02-03T15:21:54;16.20;;;3.00;;
25327;SDS011;13279;51.300;12.394;2023-02-03T15:24:21;14.10;;;2.73;;
25327;SDS011;13279;51.300;12.394;2023-02-03T15:26:51;15.93;;;3.27;;
25327;SDS011;13279;51.300;12.394;2023-02-03T15:29:28;14.30;;;2.80;;